sensor_id;sensor_type;location;lat;lon;timestamp;P1;durP1;ratioP1;P2;durP2;ratioP2
68976;SDS011;56029;52.568;13.588;2022-12-29T00:01:35;4.70;;;2.13;;
68976;SDS011;56029;52.568;13.588;2022-12-29T00:04:01;4.65;;;2.50;;
68976;SDS011;56029;52.568;13.588;2022-12-29T00:06:27;4.53;;;2.35;;
68976;SDS011;56029;52.568;13.588;2022-12-29T00:08:53;4.93;;;2.50;;
68976;SDS011;56029;52.568;13.588;2022-12-29T00:11:20;4.27;;;2.17;;
68976;SDS011;56029;52.568;13.588;2022-12-29T00:13:46;3.90;;;2.13;;
68976;SDS011;56029;52.568;13.588;2022-12-29T00:16:32;4.68;;;2.50;;
68976;SDS011;56029;52.568;13.588;2022-12-29T00:18:58;3.78;;;2.40;;
68976;SDS011;56029;52.568;13.588;2022-12-29T00:21:24;4.77;;;2.20;;
68976;SDS011;56029;52.568;13.588;2022-12-29T00:24:14;5.38;;;2.30;;
68976;SDS011;56029;52.568;13.588;2022-12-29T00:29:47;4.35;;;2.30;;
68976;SDS011;56029;52.568;13.588;2022-12-29T00:32:32;3.67;;;2.20;;
68976;SDS011;56029;52.568;13.588;2022-12-29T00:35:23;4.40;;;2.40;;
68976;SDS011;56029;52.568;13.588;2022-12-29T00:37:53;4.45;;;2.13;;
68976;SDS011;56029;52.568;13.588;2022-12-29T00:40:39;3.75;;;2.00;;
68976;SDS011;56029;52.568;13.588;2022-12-29T00:43:24;5.35;;;2.38;;
68976;SDS011;56029;52.568;13.588;2022-12-29T00:46:08;4.33;;;2.13;;
68976;SDS011;56029;52.568;13.588;2022-12-29T00:48:34;4.82;;;2.30;;
68976;SDS011;56029;52.568;13.588;2022-12-29T00:51:18;3.92;;;2.38;;
68976;SDS011;56029;52.568;13.588;2022-12-29T00:53:44;3.80;;;1.90;;
68976;SDS011;56029;52.568;13.588;2022-12-29T00:56:09;4.67;;;2.20;;
68976;SDS011;56029;52.568;13.588;2022-12-29T00:58:35;4.00;;;2.28;;
68976;SDS011;56029;52.568;13.588;2022-12-29T01:01:04;3.60;;;1.80;;
68976;SDS011;56029;52.568;13.588;2022-12-29T01:03:32;4.40;;;1.90;;
68976;SDS011;56029;52.568;13.588;2022-12-29T01:06:01;4.05;;;2.10;;
68976;SDS011;56029;52.568;13.588;2022-12-29T01:08:28;4.93;;;2.10;;
68976;SDS011;56029;52.568;13.588;2022-12-29T01:10:57;3.85;;;2.00;;
68976;SDS011;56029;52.568;13.588;2022-12-29T01:13:23;3.75;;;1.90;;
68976;SDS011;56029;52.568;13.588;2022-12-29T01:15:50;5.60;;;2.20;;
68976;SDS011;56029;52.568;13.588;2022-12-29T01:18:19;5.20;;;2.33;;
68976;SDS011;56029;52.568;13.588;2022-12-29T01:20:45;4.57;;;2.08;;
68976;SDS011;56029;52.568;13.588;2022-12-29T01:23:11;4.93;;;2.00;;
68976;SDS011;56029;52.568;13.588;2022-12-29T01:25:37;4.05;;;2.00;;
68976;SDS011;56029;52.568;13.588;2022-12-29T01:28:02;3.87;;;2.00;;
68976;SDS011;56029;52.568;13.588;2022-12-29T01:30:28;7.65;;;2.10;;
68976;SDS011;56029;52.568;13.588;2022-12-29T01:32:54;6.10;;;2.30;;
68976;SDS011;56029;52.568;13.588;2022-12-29T01:35:19;4.77;;;1.90;;
68976;SDS011;56029;52.568;13.588;2022-12-29T01:37:45;4.53;;;2.57;;
68976;SDS011;56029;52.568;13.588;2022-12-29T01:40:10;3.13;;;1.90;;
68976;SDS011;56029;52.568;13.588;2022-12-29T01:42:36;4.35;;;2.05;;
68976;SDS011;56029;52.568;13.588;2022-12-29T01:45:03;4.50;;;2.10;;
68976;SDS011;56029;52.568;13.588;2022-12-29T01:50:11;3.60;;;2.20;;
68976;SDS011;56029;52.568;13.588;2022-12-29T01:52:45;6.40;;;2.22;;
68976;SDS011;56029;52.568;13.588;2022-12-29T01:55:17;3.92;;;2.13;;
68976;SDS011;56029;52.568;13.588;2022-12-29T01:57:44;3.80;;;2.20;;
68976;SDS011;56029;52.568;13.588;2022-12-29T02:00:13;3.90;;;1.92;;
68976;SDS011;56029;52.568;13.588;2022-12-29T02:02:40;4.97;;;2.03;;
68976;SDS011;56029;52.568;13.588;2022-12-29T02:05:18;3.50;;;1.90;;
68976;SDS011;56029;52.568;13.588;2022-12-29T02:07:48;5.93;;;2.10;;
68976;SDS011;56029;52.568;13.588;2022-12-29T02:10:16;4.50;;;2.20;;
68976;SDS011;56029;52.568;13.588;2022-12-29T02:12:45;3.17;;;2.10;;
68976;SDS011;56029;52.568;13.588;2022-12-29T02:15:10;3.67;;;1.90;;
68976;SDS011;56029;52.568;13.588;2022-12-29T02:23:24;4.70;;;2.00;;
68976;SDS011;56029;52.568;13.588;2022-12-29T02:25:59;4.05;;;2.10;;
68976;SDS011;56029;52.568;13.588;2022-12-29T02:28:53;5.03;;;2.10;;
68976;SDS011;56029;52.568;13.588;2022-12-29T02:31:58;4.35;;;2.10;;
68976;SDS011;56029;52.568;13.588;2022-12-29T02:34:36;5.32;;;2.15;;
68976;SDS011;56029;52.568;13.588;2022-12-29T02:37:08;4.07;;;2.10;;
68976;SDS011;56029;52.568;13.588;2022-12-29T02:39:55;5.55;;;2.00;;
68976;SDS011;56029;52.568;13.588;2022-12-29T02:48:46;4.15;;;2.03;;
68976;SDS011;56029;52.568;13.588;2022-12-29T02:51:23;3.47;;;1.90;;
68976;SDS011;56029;52.568;13.588;2022-12-29T02:53:54;4.07;;;2.10;;
68976;SDS011;56029;52.568;13.588;2022-12-29T02:56:40;3.00;;;1.88;;
68976;SDS011;56029;52.568;13.588;2022-12-29T02:59:06;3.55;;;2.00;;
68976;SDS011;56029;52.568;13.588;2022-12-29T03:01:55;4.03;;;1.93;;
68976;SDS011;56029;52.568;13.588;2022-12-29T03:10:19;4.57;;;2.00;;
68976;SDS011;56029;52.568;13.588;2022-12-29T03:12:56;4.35;;;2.20;;
68976;SDS011;56029;52.568;13.588;2022-12-29T03:21:13;2.95;;;2.00;;
68976;SDS011;56029;52.568;13.588;2022-12-29T03:23:43;4.57;;;1.98;;
68976;SDS011;56029;52.568;13.588;2022-12-29T03:26:12;4.13;;;1.90;;
68976;SDS011;56029;52.568;13.588;2022-12-29T03:28:46;3.77;;;1.80;;
68976;SDS011;56029;52.568;13.588;2022-12-29T03:31:16;3.63;;;2.00;;
68976;SDS011;56029;52.568;13.588;2022-12-29T03:33:44;4.35;;;2.00;;
68976;SDS011;56029;52.568;13.588;2022-12-29T03:36:12;4.30;;;2.10;;
68976;SDS011;56029;52.568;13.588;2022-12-29T03:38:47;3.40;;;1.90;;
68976;SDS011;56029;52.568;13.588;2022-12-29T03:41:20;3.60;;;2.10;;
68976;SDS011;56029;52.568;13.588;2022-12-29T03:43:50;3.58;;;1.77;;
68976;SDS011;56029;52.568;13.588;2022-12-29T03:46:15;3.90;;;2.13;;
68976;SDS011;56029;52.568;13.588;2022-12-29T03:48:41;3.25;;;2.00;;
68976;SDS011;56029;52.568;13.588;2022-12-29T03:51:06;3.77;;;1.90;;
68976;SDS011;56029;52.568;13.588;2022-12-29T03:53:32;3.70;;;2.00;;
68976;SDS011;56029;52.568;13.588;2022-12-29T03:55:57;3.72;;;1.92;;
68976;SDS011;56029;52.568;13.588;2022-12-29T03:58:23;3.93;;;2.03;;
68976;SDS011;56029;52.568;13.588;2022-12-29T04:00:48;3.80;;;1.93;;
68976;SDS011;56029;52.568;13.588;2022-12-29T04:03:14;4.78;;;1.90;;
68976;SDS011;56029;52.568;13.588;2022-12-29T04:05:39;3.70;;;1.87;;
68976;SDS011;56029;52.568;13.588;2022-12-29T04:08:05;4.03;;;1.90;;
68976;SDS011;56029;52.568;13.588;2022-12-29T04:10:30;3.45;;;1.90;;
68976;SDS011;56029;52.568;13.588;2022-12-29T04:12:56;4.10;;;1.90;;
68976;SDS011;56029;52.568;13.588;2022-12-29T04:15:21;4.10;;;1.90;;
68976;SDS011;56029;52.568;13.588;2022-12-29T04:17:49;4.00;;;1.90;;
68976;SDS011;56029;52.568;13.588;2022-12-29T04:20:14;3.38;;;1.90;;
68976;SDS011;56029;52.568;13.588;2022-12-29T04:23:00;3.87;;;1.73;;
68976;SDS011;56029;52.568;13.588;2022-12-29T04:25:30;3.53;;;2.10;;
68976;SDS011;56029;52.568;13.588;2022-12-29T04:27:56;5.47;;;1.90;;
68976;SDS011;56029;52.568;13.588;2022-12-29T04:30:22;4.00;;;2.00;;
68976;SDS011;56029;52.568;13.588;2022-12-29T04:32:48;3.75;;;1.90;;
68976;SDS011;56029;52.568;13.588;2022-12-29T04:35:13;3.33;;;1.87;;
68976;SDS011;56029;52.568;13.588;2022-12-29T04:37:39;4.38;;;1.95;;
68976;SDS011;56029;52.568;13.588;2022-12-29T04:40:04;4.77;;;1.87;;
68976;SDS011;56029;52.568;13.588;2022-12-29T04:42:31;4.38;;;2.05;;
68976;SDS011;56029;52.568;13.588;2022-12-29T04:44:56;4.83;;;2.10;;
68976;SDS011;56029;52.568;13.588;2022-12-29T04:47:22;3.00;;;2.10;;
68976;SDS011;56029;52.568;13.588;2022-12-29T04:49:47;6.60;;;2.00;;
68976;SDS011;56029;52.568;13.588;2022-12-29T04:52:13;4.17;;;2.07;;
68976;SDS011;56029;52.568;13.588;2022-12-29T04:54:38;4.23;;;2.00;;
68976;SDS011;56029;52.568;13.588;2022-12-29T04:57:05;3.05;;;1.92;;
68976;SDS011;56029;52.568;13.588;2022-12-29T04:59:30;3.30;;;1.90;;
68976;SDS011;56029;52.568;13.588;2022-12-29T05:01:56;4.40;;;1.95;;
68976;SDS011;56029;52.568;13.588;2022-12-29T05:04:21;2.80;;;1.80;;
68976;SDS011;56029;52.568;13.588;2022-12-29T05:06:47;3.72;;;2.00;;
68976;SDS011;56029;52.568;13.588;2022-12-29T05:09:12;4.87;;;2.30;;
68976;SDS011;56029;52.568;13.588;2022-12-29T05:11:38;4.57;;;1.90;;
68976;SDS011;56029;52.568;13.588;2022-12-29T05:14:03;3.57;;;1.80;;
68976;SDS011;56029;52.568;13.588;2022-12-29T05:16:29;3.37;;;1.80;;
68976;SDS011;56029;52.568;13.588;2022-12-29T05:18:55;3.60;;;2.10;;
68976;SDS011;56029;52.568;13.588;2022-12-29T05:21:21;4.20;;;1.90;;
68976;SDS011;56029;52.568;13.588;2022-12-29T05:23:46;4.03;;;2.10;;
68976;SDS011;56029;52.568;13.588;2022-12-29T05:26:12;3.73;;;1.90;;
68976;SDS011;56029;52.568;13.588;2022-12-29T05:28:37;2.87;;;1.90;;
68976;SDS011;56029;52.568;13.588;2022-12-29T05:31:03;3.92;;;2.00;;
68976;SDS011;56029;52.568;13.588;2022-12-29T05:33:28;4.67;;;1.80;;
68976;SDS011;56029;52.568;13.588;2022-12-29T05:35:54;3.97;;;1.90;;
68976;SDS011;56029;52.568;13.588;2022-12-29T05:38:19;3.03;;;1.83;;
68976;SDS011;56029;52.568;13.588;2022-12-29T05:40:45;3.63;;;1.73;;
68976;SDS011;56029;52.568;13.588;2022-12-29T05:43:11;4.30;;;2.08;;
68976;SDS011;56029;52.568;13.588;2022-12-29T05:45:36;3.13;;;1.90;;
68976;SDS011;56029;52.568;13.588;2022-12-29T05:48:02;5.03;;;2.00;;
68976;SDS011;56029;52.568;13.588;2022-12-29T05:50:28;3.75;;;2.08;;
68976;SDS011;56029;52.568;13.588;2022-12-29T05:52:53;3.97;;;2.00;;
68976;SDS011;56029;52.568;13.588;2022-12-29T05:55:19;3.67;;;2.00;;
68976;SDS011;56029;52.568;13.588;2022-12-29T05:57:44;5.33;;;2.00;;
68976;SDS011;56029;52.568;13.588;2022-12-29T06:00:10;4.00;;;2.05;;
68976;SDS011;56029;52.568;13.588;2022-12-29T06:02:36;3.03;;;1.75;;
68976;SDS011;56029;52.568;13.588;2022-12-29T06:05:02;3.60;;;1.93;;
68976;SDS011;56029;52.568;13.588;2022-12-29T06:07:27;3.70;;;1.98;;
68976;SDS011;56029;52.568;13.588;2022-12-29T06:09:53;5.37;;;2.10;;
68976;SDS011;56029;52.568;13.588;2022-12-29T06:12:18;3.93;;;2.13;;
68976;SDS011;56029;52.568;13.588;2022-12-29T06:14:44;5.00;;;1.98;;
68976;SDS011;56029;52.568;13.588;2022-12-29T06:17:10;3.20;;;2.20;;
68976;SDS011;56029;52.568;13.588;2022-12-29T06:19:35;5.13;;;2.00;;
68976;SDS011;56029;52.568;13.588;2022-12-29T06:22:01;3.80;;;1.97;;
68976;SDS011;56029;52.568;13.588;2022-12-29T06:24:27;3.33;;;1.90;;
68976;SDS011;56029;52.568;13.588;2022-12-29T06:26:52;2.93;;;1.90;;
68976;SDS011;56029;52.568;13.588;2022-12-29T06:29:18;3.87;;;2.10;;
68976;SDS011;56029;52.568;13.588;2022-12-29T06:31:45;3.75;;;1.90;;
68976;SDS011;56029;52.568;13.588;2022-12-29T06:34:11;4.55;;;2.00;;
68976;SDS011;56029;52.568;13.588;2022-12-29T06:36:38;3.22;;;1.95;;
68976;SDS011;56029;52.568;13.588;2022-12-29T06:39:04;3.80;;;1.70;;
68976;SDS011;56029;52.568;13.588;2022-12-29T06:41:30;4.00;;;1.90;;
68976;SDS011;56029;52.568;13.588;2022-12-29T06:43:55;3.35;;;1.90;;
68976;SDS011;56029;52.568;13.588;2022-12-29T06:46:21;4.37;;;2.07;;
68976;SDS011;56029;52.568;13.588;2022-12-29T06:48:46;3.13;;;1.90;;
68976;SDS011;56029;52.568;13.588;2022-12-29T06:51:12;4.65;;;2.00;;
68976;SDS011;56029;52.568;13.588;2022-12-29T06:53:37;5.20;;;2.27;;
68976;SDS011;56029;52.568;13.588;2022-12-29T06:56:03;3.60;;;1.80;;
68976;SDS011;56029;52.568;13.588;2022-12-29T06:58:29;4.10;;;2.08;;
68976;SDS011;56029;52.568;13.588;2022-12-29T07:00:54;3.80;;;1.90;;
68976;SDS011;56029;52.568;13.588;2022-12-29T07:03:20;3.30;;;1.80;;
68976;SDS011;56029;52.568;13.588;2022-12-29T07:05:45;3.67;;;2.10;;
68976;SDS011;56029;52.568;13.588;2022-12-29T07:08:11;5.53;;;2.10;;
68976;SDS011;56029;52.568;13.588;2022-12-29T07:10:36;3.35;;;1.70;;
68976;SDS011;56029;52.568;13.588;2022-12-29T07:13:02;4.00;;;2.07;;
68976;SDS011;56029;52.568;13.588;2022-12-29T07:15:28;4.13;;;2.03;;
68976;SDS011;56029;52.568;13.588;2022-12-29T07:17:53;3.13;;;1.83;;
68976;SDS011;56029;52.568;13.588;2022-12-29T07:20:19;3.43;;;1.70;;
68976;SDS011;56029;52.568;13.588;2022-12-29T07:22:44;3.75;;;1.90;;
68976;SDS011;56029;52.568;13.588;2022-12-29T07:25:10;4.07;;;1.90;;
68976;SDS011;56029;52.568;13.588;2022-12-29T07:27:35;4.27;;;1.90;;
68976;SDS011;56029;52.568;13.588;2022-12-29T07:30:01;2.88;;;1.85;;
68976;SDS011;56029;52.568;13.588;2022-12-29T07:32:27;4.83;;;1.93;;
68976;SDS011;56029;52.568;13.588;2022-12-29T07:34:52;4.82;;;2.05;;
68976;SDS011;56029;52.568;13.588;2022-12-29T07:37:18;4.07;;;2.00;;
68976;SDS011;56029;52.568;13.588;2022-12-29T07:39:43;6.37;;;2.10;;
68976;SDS011;56029;52.568;13.588;2022-12-29T07:42:09;3.55;;;1.90;;
68976;SDS011;56029;52.568;13.588;2022-12-29T07:44:34;3.50;;;1.80;;
68976;SDS011;56029;52.568;13.588;2022-12-29T07:47:02;2.80;;;1.80;;
68976;SDS011;56029;52.568;13.588;2022-12-29T07:49:28;3.42;;;1.63;;
68976;SDS011;56029;52.568;13.588;2022-12-29T07:51:53;3.40;;;1.77;;
68976;SDS011;56029;52.568;13.588;2022-12-29T07:54:19;4.63;;;1.83;;
68976;SDS011;56029;52.568;13.588;2022-12-29T07:56:45;2.93;;;1.70;;
68976;SDS011;56029;52.568;13.588;2022-12-29T07:59:10;3.92;;;1.70;;
68976;SDS011;56029;52.568;13.588;2022-12-29T08:01:37;4.25;;;1.70;;
68976;SDS011;56029;52.568;13.588;2022-12-29T08:04:03;2.63;;;1.73;;
68976;SDS011;56029;52.568;13.588;2022-12-29T08:06:29;3.22;;;1.70;;
68976;SDS011;56029;52.568;13.588;2022-12-29T08:08:56;3.53;;;1.85;;
68976;SDS011;56029;52.568;13.588;2022-12-29T08:11:22;4.38;;;1.75;;
68976;SDS011;56029;52.568;13.588;2022-12-29T08:13:48;3.15;;;1.80;;
68976;SDS011;56029;52.568;13.588;2022-12-29T08:16:14;3.53;;;1.77;;
68976;SDS011;56029;52.568;13.588;2022-12-29T08:18:39;3.72;;;1.70;;
68976;SDS011;56029;52.568;13.588;2022-12-29T08:21:05;2.77;;;1.67;;
68976;SDS011;56029;52.568;13.588;2022-12-29T08:23:31;3.50;;;1.85;;
68976;SDS011;56029;52.568;13.588;2022-12-29T08:26:00;5.30;;;1.80;;
68976;SDS011;56029;52.568;13.588;2022-12-29T08:28:27;3.15;;;1.70;;
68976;SDS011;56029;52.568;13.588;2022-12-29T08:30:53;3.25;;;1.65;;
68976;SDS011;56029;52.568;13.588;2022-12-29T08:33:19;2.30;;;1.67;;
68976;SDS011;56029;52.568;13.588;2022-12-29T08:35:44;2.65;;;1.70;;
68976;SDS011;56029;52.568;13.588;2022-12-29T08:38:10;3.93;;;1.60;;
68976;SDS011;56029;52.568;13.588;2022-12-29T08:40:38;2.75;;;1.70;;
68976;SDS011;56029;52.568;13.588;2022-12-29T08:43:04;2.63;;;1.73;;
68976;SDS011;56029;52.568;13.588;2022-12-29T08:45:30;3.15;;;1.58;;
68976;SDS011;56029;52.568;13.588;2022-12-29T08:47:56;3.03;;;1.80;;
68976;SDS011;56029;52.568;13.588;2022-12-29T08:50:22;3.37;;;2.00;;
68976;SDS011;56029;52.568;13.588;2022-12-29T08:52:47;3.53;;;1.50;;
68976;SDS011;56029;52.568;13.588;2022-12-29T08:55:13;2.30;;;1.70;;
68976;SDS011;56029;52.568;13.588;2022-12-29T08:57:38;4.23;;;1.90;;
68976;SDS011;56029;52.568;13.588;2022-12-29T09:00:04;4.33;;;2.07;;
68976;SDS011;56029;52.568;13.588;2022-12-29T09:02:30;2.92;;;1.65;;
68976;SDS011;56029;52.568;13.588;2022-12-29T09:04:56;3.45;;;1.70;;
68976;SDS011;56029;52.568;13.588;2022-12-29T09:07:22;3.63;;;1.83;;
68976;SDS011;56029;52.568;13.588;2022-12-29T09:09:48;3.00;;;1.83;;
68976;SDS011;56029;52.568;13.588;2022-12-29T09:12:14;2.63;;;1.60;;
68976;SDS011;56029;52.568;13.588;2022-12-29T09:14:41;4.10;;;1.80;;
68976;SDS011;56029;52.568;13.588;2022-12-29T09:17:08;3.65;;;1.80;;
68976;SDS011;56029;52.568;13.588;2022-12-29T09:19:53;4.60;;;1.80;;
68976;SDS011;56029;52.568;13.588;2022-12-29T09:22:21;2.95;;;1.60;;
68976;SDS011;56029;52.568;13.588;2022-12-29T09:24:47;3.57;;;1.57;;
68976;SDS011;56029;52.568;13.588;2022-12-29T09:27:12;3.43;;;1.70;;
68976;SDS011;56029;52.568;13.588;2022-12-29T09:29:38;2.92;;;1.50;;
68976;SDS011;56029;52.568;13.588;2022-12-29T09:32:03;3.73;;;1.60;;
68976;SDS011;56029;52.568;13.588;2022-12-29T09:34:29;2.35;;;1.50;;
68976;SDS011;56029;52.568;13.588;2022-12-29T09:36:55;5.10;;;1.73;;
68976;SDS011;56029;52.568;13.588;2022-12-29T09:39:22;5.18;;;1.90;;
68976;SDS011;56029;52.568;13.588;2022-12-29T09:42:00;2.97;;;1.63;;
68976;SDS011;56029;52.568;13.588;2022-12-29T09:44:54;3.33;;;1.53;;
68976;SDS011;56029;52.568;13.588;2022-12-29T09:47:39;3.17;;;1.65;;
68976;SDS011;56029;52.568;13.588;2022-12-29T09:50:16;2.53;;;1.60;;
68976;SDS011;56029;52.568;13.588;2022-12-29T09:55:45;2.60;;;1.70;;
68976;SDS011;56029;52.568;13.588;2022-12-29T09:58:16;2.77;;;1.50;;
68976;SDS011;56029;52.568;13.588;2022-12-29T10:01:07;3.33;;;1.70;;
68976;SDS011;56029;52.568;13.588;2022-12-29T10:03:41;5.25;;;1.90;;
68976;SDS011;56029;52.568;13.588;2022-12-29T10:08:52;2.95;;;1.52;;
68976;SDS011;56029;52.568;13.588;2022-12-29T10:14:15;2.63;;;1.70;;
68976;SDS011;56029;52.568;13.588;2022-12-29T10:17:12;2.58;;;1.70;;
68976;SDS011;56029;52.568;13.588;2022-12-29T10:20:17;2.65;;;1.80;;
68976;SDS011;56029;52.568;13.588;2022-12-29T10:25:38;2.80;;;1.70;;
68976;SDS011;56029;52.568;13.588;2022-12-29T10:28:12;3.22;;;1.60;;
68976;SDS011;56029;52.568;13.588;2022-12-29T10:30:40;2.50;;;1.83;;
68976;SDS011;56029;52.568;13.588;2022-12-29T10:33:07;3.28;;;1.50;;
68976;SDS011;56029;52.568;13.588;2022-12-29T10:35:41;3.97;;;1.70;;
68976;SDS011;56029;52.568;13.588;2022-12-29T10:43:34;3.28;;;1.80;;
68976;SDS011;56029;52.568;13.588;2022-12-29T10:46:21;3.03;;;1.80;;
68976;SDS011;56029;52.568;13.588;2022-12-29T10:48:50;3.20;;;1.63;;
68976;SDS011;56029;52.568;13.588;2022-12-29T10:53:53;2.20;;;1.52;;
68976;SDS011;56029;52.568;13.588;2022-12-29T10:59:03;2.67;;;1.58;;
68976;SDS011;56029;52.568;13.588;2022-12-29T11:07:18;3.15;;;1.40;;
68976;SDS011;56029;52.568;13.588;2022-12-29T11:09:45;5.07;;;2.30;;
68976;SDS011;56029;52.568;13.588;2022-12-29T11:14:50;4.03;;;1.60;;
68976;SDS011;56029;52.568;13.588;2022-12-29T11:17:27;2.85;;;1.30;;
68976;SDS011;56029;52.568;13.588;2022-12-29T11:19:52;4.10;;;1.57;;
68976;SDS011;56029;52.568;13.588;2022-12-29T11:22:22;4.27;;;1.57;;
68976;SDS011;56029;52.568;13.588;2022-12-29T11:24:53;2.13;;;1.30;;
68976;SDS011;56029;52.568;13.588;2022-12-29T11:27:24;2.80;;;1.40;;
68976;SDS011;56029;52.568;13.588;2022-12-29T11:29:52;2.88;;;1.83;;
68976;SDS011;56029;52.568;13.588;2022-12-29T11:32:22;4.18;;;1.20;;
68976;SDS011;56029;52.568;13.588;2022-12-29T11:34:50;2.20;;;1.20;;
68976;SDS011;56029;52.568;13.588;2022-12-29T11:37:19;1.73;;;1.30;;
68976;SDS011;56029;52.568;13.588;2022-12-29T11:39:59;2.95;;;1.58;;
68976;SDS011;56029;52.568;13.588;2022-12-29T11:42:37;3.63;;;1.50;;
68976;SDS011;56029;52.568;13.588;2022-12-29T11:45:22;2.78;;;1.60;;
68976;SDS011;56029;52.568;13.588;2022-12-29T11:47:50;1.60;;;1.30;;
68976;SDS011;56029;52.568;13.588;2022-12-29T11:50:22;4.30;;;1.65;;
68976;SDS011;56029;52.568;13.588;2022-12-29T11:52:56;2.15;;;1.30;;
68976;SDS011;56029;52.568;13.588;2022-12-29T11:55:25;2.92;;;1.30;;
68976;SDS011;56029;52.568;13.588;2022-12-29T11:57:52;1.50;;;1.20;;
68976;SDS011;56029;52.568;13.588;2022-12-29T12:00:21;2.47;;;1.30;;
68976;SDS011;56029;52.568;13.588;2022-12-29T12:03:01;2.55;;;1.30;;
68976;SDS011;56029;52.568;13.588;2022-12-29T12:05:35;2.40;;;1.30;;
68976;SDS011;56029;52.568;13.588;2022-12-29T12:08:12;1.92;;;1.30;;
68976;SDS011;56029;52.568;13.588;2022-12-29T12:10:44;2.47;;;1.30;;
68976;SDS011;56029;52.568;13.588;2022-12-29T12:15:55;2.38;;;1.20;;
68976;SDS011;56029;52.568;13.588;2022-12-29T12:18:30;1.58;;;1.10;;
68976;SDS011;56029;52.568;13.588;2022-12-29T12:29:35;1.70;;;1.00;;
68976;SDS011;56029;52.568;13.588;2022-12-29T12:32:20;1.90;;;1.00;;
68976;SDS011;56029;52.568;13.588;2022-12-29T12:34:51;2.45;;;1.08;;
68976;SDS011;56029;52.568;13.588;2022-12-29T12:37:51;1.23;;;0.80;;
68976;SDS011;56029;52.568;13.588;2022-12-29T12:43:06;1.27;;;0.95;;
68976;SDS011;56029;52.568;13.588;2022-12-29T12:46:10;1.80;;;1.00;;
68976;SDS011;56029;52.568;13.588;2022-12-29T12:51:44;2.67;;;1.17;;
68976;SDS011;56029;52.568;13.588;2022-12-29T12:54:23;1.73;;;0.93;;
68976;SDS011;56029;52.568;13.588;2022-12-29T12:59:50;2.70;;;1.10;;
68976;SDS011;56029;52.568;13.588;2022-12-29T13:10:42;1.48;;;1.00;;
68976;SDS011;56029;52.568;13.588;2022-12-29T13:13:33;2.65;;;1.10;;
68976;SDS011;56029;52.568;13.588;2022-12-29T13:19:34;1.73;;;0.87;;
68976;SDS011;56029;52.568;13.588;2022-12-29T13:22:12;2.03;;;1.15;;
68976;SDS011;56029;52.568;13.588;2022-12-29T13:28:11;2.22;;;1.20;;
68976;SDS011;56029;52.568;13.588;2022-12-29T13:33:49;2.83;;;1.30;;
68976;SDS011;56029;52.568;13.588;2022-12-29T13:36:27;1.98;;;1.20;;
68976;SDS011;56029;52.568;13.588;2022-12-29T13:39:01;3.50;;;1.35;;
68976;SDS011;56029;52.568;13.588;2022-12-29T13:41:34;2.92;;;1.40;;
68976;SDS011;56029;52.568;13.588;2022-12-29T13:44:04;2.40;;;1.23;;
68976;SDS011;56029;52.568;13.588;2022-12-29T13:46:33;1.90;;;1.20;;
68976;SDS011;56029;52.568;13.588;2022-12-29T13:49:05;1.98;;;1.10;;
68976;SDS011;56029;52.568;13.588;2022-12-29T13:51:46;2.45;;;1.50;;
68976;SDS011;56029;52.568;13.588;2022-12-29T13:54:21;2.35;;;1.30;;
68976;SDS011;56029;52.568;13.588;2022-12-29T14:00:04;3.23;;;1.33;;
68976;SDS011;56029;52.568;13.588;2022-12-29T14:07:43;4.13;;;1.60;;
68976;SDS011;56029;52.568;13.588;2022-12-29T14:10:29;2.60;;;1.60;;
68976;SDS011;56029;52.568;13.588;2022-12-29T14:13:02;3.97;;;1.90;;
68976;SDS011;56029;52.568;13.588;2022-12-29T14:15:38;4.85;;;1.70;;
68976;SDS011;56029;52.568;13.588;2022-12-29T14:18:19;4.78;;;2.05;;
68976;SDS011;56029;52.568;13.588;2022-12-29T14:20:49;3.78;;;1.77;;
68976;SDS011;56029;52.568;13.588;2022-12-29T14:28:32;3.13;;;1.60;;
68976;SDS011;56029;52.568;13.588;2022-12-29T14:31:04;3.78;;;1.83;;
68976;SDS011;56029;52.568;13.588;2022-12-29T14:33:31;4.57;;;2.20;;
68976;SDS011;56029;52.568;13.588;2022-12-29T14:47:18;3.73;;;2.10;;
68976;SDS011;56029;52.568;13.588;2022-12-29T14:49:47;4.50;;;2.20;;
68976;SDS011;56029;52.568;13.588;2022-12-29T14:52:15;5.47;;;2.35;;
68976;SDS011;56029;52.568;13.588;2022-12-29T14:54:44;6.07;;;2.97;;
68976;SDS011;56029;52.568;13.588;2022-12-29T14:57:22;4.10;;;2.30;;
68976;SDS011;56029;52.568;13.588;2022-12-29T15:00:02;5.27;;;2.00;;
68976;SDS011;56029;52.568;13.588;2022-12-29T15:02:33;4.72;;;2.35;;
68976;SDS011;56029;52.568;13.588;2022-12-29T15:05:03;5.65;;;2.60;;
68976;SDS011;56029;52.568;13.588;2022-12-29T15:07:31;5.68;;;2.75;;
68976;SDS011;56029;52.568;13.588;2022-12-29T15:09:59;4.25;;;2.13;;
68976;SDS011;56029;52.568;13.588;2022-12-29T15:12:45;4.33;;;2.43;;
68976;SDS011;56029;52.568;13.588;2022-12-29T15:15:26;4.35;;;2.20;;
68976;SDS011;56029;52.568;13.588;2022-12-29T15:17:55;3.50;;;2.10;;
68976;SDS011;56029;52.568;13.588;2022-12-29T15:20:27;4.43;;;2.20;;
68976;SDS011;56029;52.568;13.588;2022-12-29T15:22:55;5.05;;;2.63;;
68976;SDS011;56029;52.568;13.588;2022-12-29T15:25:35;3.75;;;2.10;;
68976;SDS011;56029;52.568;13.588;2022-12-29T15:28:02;4.38;;;2.00;;
68976;SDS011;56029;52.568;13.588;2022-12-29T15:30:30;3.87;;;2.00;;
68976;SDS011;56029;52.568;13.588;2022-12-29T15:32:56;2.88;;;1.70;;
68976;SDS011;56029;52.568;13.588;2022-12-29T15:37:52;3.55;;;1.90;;
68976;SDS011;56029;52.568;13.588;2022-12-29T15:40:28;4.87;;;2.07;;
68976;SDS011;56029;52.568;13.588;2022-12-29T15:45:34;2.78;;;1.60;;
68976;SDS011;56029;52.568;13.588;2022-12-29T15:48:08;3.30;;;1.50;;
68976;SDS011;56029;52.568;13.588;2022-12-29T15:50:41;3.05;;;1.45;;
68976;SDS011;56029;52.568;13.588;2022-12-29T15:53:11;3.90;;;1.50;;
68976;SDS011;56029;52.568;13.588;2022-12-29T15:55:43;2.45;;;1.48;;
68976;SDS011;56029;52.568;13.588;2022-12-29T15:58:18;4.55;;;1.73;;
68976;SDS011;56029;52.568;13.588;2022-12-29T16:00:52;3.43;;;1.70;;
68976;SDS011;56029;52.568;13.588;2022-12-29T16:03:20;3.42;;;2.20;;
68976;SDS011;56029;52.568;13.588;2022-12-29T16:05:54;5.43;;;2.90;;
68976;SDS011;56029;52.568;13.588;2022-12-29T16:08:24;4.85;;;2.63;;
68976;SDS011;56029;52.568;13.588;2022-12-29T16:10:57;5.07;;;2.40;;
68976;SDS011;56029;52.568;13.588;2022-12-29T16:13:31;4.87;;;2.80;;
68976;SDS011;56029;52.568;13.588;2022-12-29T16:16:02;4.75;;;2.35;;
68976;SDS011;56029;52.568;13.588;2022-12-29T16:18:35;6.47;;;2.90;;
68976;SDS011;56029;52.568;13.588;2022-12-29T16:21:03;7.47;;;3.40;;
68976;SDS011;56029;52.568;13.588;2022-12-29T16:23:38;7.88;;;3.20;;
68976;SDS011;56029;52.568;13.588;2022-12-29T16:26:03;6.77;;;2.83;;
68976;SDS011;56029;52.568;13.588;2022-12-29T16:28:39;7.22;;;2.90;;
68976;SDS011;56029;52.568;13.588;2022-12-29T16:31:17;5.70;;;2.60;;
68976;SDS011;56029;52.568;13.588;2022-12-29T16:33:48;6.10;;;2.80;;
68976;SDS011;56029;52.568;13.588;2022-12-29T16:36:26;6.28;;;2.35;;
68976;SDS011;56029;52.568;13.588;2022-12-29T16:39:14;6.65;;;2.72;;
68976;SDS011;56029;52.568;13.588;2022-12-29T16:41:46;5.90;;;2.70;;
68976;SDS011;56029;52.568;13.588;2022-12-29T16:44:16;7.07;;;3.00;;
68976;SDS011;56029;52.568;13.588;2022-12-29T16:47:03;5.47;;;2.80;;
68976;SDS011;56029;52.568;13.588;2022-12-29T16:49:51;5.35;;;2.53;;
68976;SDS011;56029;52.568;13.588;2022-12-29T16:52:22;6.55;;;2.75;;
68976;SDS011;56029;52.568;13.588;2022-12-29T16:54:54;5.10;;;2.40;;
68976;SDS011;56029;52.568;13.588;2022-12-29T16:57:23;3.88;;;2.00;;
68976;SDS011;56029;52.568;13.588;2022-12-29T16:59:51;6.37;;;2.97;;